sensor_id;sensor_type;location;lat;lon;timestamp;temperature;humidity
19536;HTU21D;9913;51.168;4.124;2023-04-03T00:01:18;3.09;62.70
19536;HTU21D;9913;51.168;4.124;2023-04-03T00:03:46;3.11;62.98
19536;HTU21D;9913;51.168;4.124;2023-04-03T00:06:15;3.00;62.44
19536;HTU21D;9913;51.168;4.124;2023-04-03T00:08:43;2.88;62.48
19536;HTU21D;9913;51.168;4.124;2023-04-03T00:11:12;2.91;62.48
19536;HTU21D;9913;51.168;4.124;2023-04-03T00:13:42;2.83;62.19
19536;HTU21D;9913;51.168;4.124;2023-04-03T00:16:11;2.87;62.32
19536;HTU21D;9913;51.168;4.124;2023-04-03T00:18:40;2.76;62.42
19536;HTU21D;9913;51.168;4.124;2023-04-03T00:21:09;2.74;62.50
19536;HTU21D;9913;51.168;4.124;2023-04-03T00:23:40;2.84;62.70
19536;HTU21D;9913;51.168;4.124;2023-04-03T00:26:08;2.97;62.58
19536;HTU21D;9913;51.168;4.124;2023-04-03T00:28:39;2.87;62.63
19536;HTU21D;9913;51.168;4.124;2023-04-03T00:31:09;2.88;62.49
19536;HTU21D;9913;51.168;4.124;2023-04-03T00:33:38;2.82;62.80
19536;HTU21D;9913;51.168;4.124;2023-04-03T00:36:07;2.79;62.76
19536;HTU21D;9913;51.168;4.124;2023-04-03T00:38:36;2.70;62.59
19536;HTU21D;9913;51.168;4.124;2023-04-03T00:41:05;2.71;62.47
19536;HTU21D;9913;51.168;4.124;2023-04-03T00:43:34;2.65;62.32
19536;HTU21D;9913;51.168;4.124;2023-04-03T00:46:02;2.65;62.48
19536;HTU21D;9913;51.168;4.124;2023-04-03T00:48:38;2.79;62.98
19536;HTU21D;9913;51.168;4.124;2023-04-03T00:51:11;2.82;62.76
19536;HTU21D;9913;51.168;4.124;2023-04-03T00:53:43;2.98;62.66
19536;HTU21D;9913;51.168;4.124;2023-04-03T00:56:14;3.04;62.51
19536;HTU21D;9913;51.168;4.124;2023-04-03T00:58:48;3.02;62.55
19536;HTU21D;9913;51.168;4.124;2023-04-03T01:01:20;2.94;62.56
19536;HTU21D;9913;51.168;4.124;2023-04-03T01:03:51;2.89;62.50
19536;HTU21D;9913;51.168;4.124;2023-04-03T01:06:24;2.87;62.44
19536;HTU21D;9913;51.168;4.124;2023-04-03T01:08:54;2.87;61.92
19536;HTU21D;9913;51.168;4.124;2023-04-03T01:11:23;2.98;63.07
19536;HTU21D;9913;51.168;4.124;2023-04-03T01:13:53;2.85;62.39
19536;HTU21D;9913;51.168;4.124;2023-04-03T01:16:21;2.88;62.51
19536;HTU21D;9913;51.168;4.124;2023-04-03T01:18:51;2.83;62.78
19536;HTU21D;9913;51.168;4.124;2023-04-03T01:21:52;2.72;62.27
19536;HTU21D;9913;51.168;4.124;2023-04-03T01:24:32;2.81;62.44
19536;HTU21D;9913;51.168;4.124;2023-04-03T01:27:05;2.68;62.57
19536;HTU21D;9913;51.168;4.124;2023-04-03T01:29:35;2.65;62.34
19536;HTU21D;9913;51.168;4.124;2023-04-03T01:32:05;2.60;62.49
19536;HTU21D;9913;51.168;4.124;2023-04-03T01:34:34;2.55;62.28
19536;HTU21D;9913;51.168;4.124;2023-04-03T01:37:02;2.46;62.82
19536;HTU21D;9913;51.168;4.124;2023-04-03T01:39:30;2.44;62.58
19536;HTU21D;9913;51.168;4.124;2023-04-03T01:42:00;2.34;62.41
19536;HTU21D;9913;51.168;4.124;2023-04-03T01:44:35;2.29;62.70
19536;HTU21D;9913;51.168;4.124;2023-04-03T01:47:06;2.25;62.49
19536;HTU21D;9913;51.168;4.124;2023-04-03T01:49:36;2.19;62.67
19536;HTU21D;9913;51.168;4.124;2023-04-03T01:52:04;2.16;62.73
19536;HTU21D;9913;51.168;4.124;2023-04-03T01:54:33;2.22;62.65
19536;HTU21D;9913;51.168;4.124;2023-04-03T01:57:01;2.15;62.76
19536;HTU21D;9913;51.168;4.124;2023-04-03T01:59:30;2.15;62.69
19536;HTU21D;9913;51.168;4.124;2023-04-03T02:01:59;2.11;62.79
19536;HTU21D;9913;51.168;4.124;2023-04-03T02:04:28;2.13;62.72
19536;HTU21D;9913;51.168;4.124;2023-04-03T02:06:57;2.13;62.53
19536;HTU21D;9913;51.168;4.124;2023-04-03T02:09:25;2.14;62.79
19536;HTU21D;9913;51.168;4.124;2023-04-03T02:11:54;2.08;62.60
19536;HTU21D;9913;51.168;4.124;2023-04-03T02:14:23;1.99;62.96
19536;HTU21D;9913;51.168;4.124;2023-04-03T02:16:51;2.05;62.63
19536;HTU21D;9913;51.168;4.124;2023-04-03T02:19:22;1.92;62.73
19536;HTU21D;9913;51.168;4.124;2023-04-03T02:21:51;1.95;62.50
19536;HTU21D;9913;51.168;4.124;2023-04-03T02:24:20;1.94;62.75
19536;HTU21D;9913;51.168;4.124;2023-04-03T02:26:48;1.80;62.80
19536;HTU21D;9913;51.168;4.124;2023-04-03T02:29:17;1.80;62.92
19536;HTU21D;9913;51.168;4.124;2023-04-03T02:31:45;1.82;62.85
19536;HTU21D;9913;51.168;4.124;2023-04-03T02:34:14;1.77;62.90
19536;HTU21D;9913;51.168;4.124;2023-04-03T02:36:44;1.75;62.95
19536;HTU21D;9913;51.168;4.124;2023-04-03T02:39:14;1.71;62.95
19536;HTU21D;9913;51.168;4.124;2023-04-03T02:41:44;1.73;62.80
19536;HTU21D;9913;51.168;4.124;2023-04-03T02:44:18;1.80;62.86
19536;HTU21D;9913;51.168;4.124;2023-04-03T02:46:47;1.76;62.90
19536;HTU21D;9913;51.168;4.124;2023-04-03T02:49:16;1.71;62.82
19536;HTU21D;9913;51.168;4.124;2023-04-03T02:51:44;1.70;62.89
19536;HTU21D;9913;51.168;4.124;2023-04-03T02:54:14;1.64;62.93
19536;HTU21D;9913;51.168;4.124;2023-04-03T02:56:47;1.64;62.99
19536;HTU21D;9913;51.168;4.124;2023-04-03T02:59:16;1.66;62.86
19536;HTU21D;9913;51.168;4.124;2023-04-03T03:01:44;1.64;62.92
19536;HTU21D;9913;51.168;4.124;2023-04-03T03:04:13;1.67;62.94
19536;HTU21D;9913;51.168;4.124;2023-04-03T03:06:41;1.58;62.81
19536;HTU21D;9913;51.168;4.124;2023-04-03T03:09:11;1.60;62.84
19536;HTU21D;9913;51.168;4.124;2023-04-03T03:11:43;1.53;62.99
19536;HTU21D;9913;51.168;4.124;2023-04-03T03:14:11;1.62;62.96
19536;HTU21D;9913;51.168;4.124;2023-04-03T03:16:40;1.49;62.93
19536;HTU21D;9913;51.168;4.124;2023-04-03T03:19:08;1.47;63.02
19536;HTU21D;9913;51.168;4.124;2023-04-03T03:21:37;1.45;63.11
19536;HTU21D;9913;51.168;4.124;2023-04-03T03:24:06;1.45;63.01
19536;HTU21D;9913;51.168;4.124;2023-04-03T03:26:34;1.42;62.98
19536;HTU21D;9913;51.168;4.124;2023-04-03T03:29:04;1.45;63.04
19536;HTU21D;9913;51.168;4.124;2023-04-03T03:31:33;1.40;63.08
19536;HTU21D;9913;51.168;4.124;2023-04-03T03:34:01;1.33;63.18
19536;HTU21D;9913;51.168;4.124;2023-04-03T03:36:30;1.36;63.15
19536;HTU21D;9913;51.168;4.124;2023-04-03T03:38:58;1.37;63.21
19536;HTU21D;9913;51.168;4.124;2023-04-03T03:41:27;1.32;63.09
19536;HTU21D;9913;51.168;4.124;2023-04-03T03:43:55;1.25;63.30
19536;HTU21D;9913;51.168;4.124;2023-04-03T03:46:26;1.22;63.37
19536;HTU21D;9913;51.168;4.124;2023-04-03T03:48:55;1.23;63.30
19536;HTU21D;9913;51.168;4.124;2023-04-03T03:51:23;1.23;63.27
19536;HTU21D;9913;51.168;4.124;2023-04-03T03:53:52;1.32;63.25
19536;HTU21D;9913;51.168;4.124;2023-04-03T03:56:20;1.26;63.13
19536;HTU21D;9913;51.168;4.124;2023-04-03T03:58:49;1.27;63.10
19536;HTU21D;9913;51.168;4.124;2023-04-03T04:01:17;1.24;63.14
19536;HTU21D;9913;51.168;4.124;2023-04-03T04:03:49;1.22;63.17
19536;HTU21D;9913;51.168;4.124;2023-04-03T04:06:21;1.26;63.27
19536;HTU21D;9913;51.168;4.124;2023-04-03T04:08:52;1.24;63.23
19536;HTU21D;9913;51.168;4.124;2023-04-03T04:11:22;1.23;63.18
19536;HTU21D;9913;51.168;4.124;2023-04-03T04:13:51;1.21;63.02
19536;HTU21D;9913;51.168;4.124;2023-04-03T04:16:24;1.26;62.84
19536;HTU21D;9913;51.168;4.124;2023-04-03T04:18:55;1.24;63.12
19536;HTU21D;9913;51.168;4.124;2023-04-03T04:21:24;1.28;63.00
19536;HTU21D;9913;51.168;4.124;2023-04-03T04:23:53;1.22;63.03
19536;HTU21D;9913;51.168;4.124;2023-04-03T04:26:23;1.19;63.25
19536;HTU21D;9913;51.168;4.124;2023-04-03T04:28:52;1.26;63.14
19536;HTU21D;9913;51.168;4.124;2023-04-03T04:31:20;1.18;63.05
19536;HTU21D;9913;51.168;4.124;2023-04-03T04:33:49;1.31;63.22
19536;HTU21D;9913;51.168;4.124;2023-04-03T04:36:19;1.24;63.07
19536;HTU21D;9913;51.168;4.124;2023-04-03T04:38:48;1.20;63.13
19536;HTU21D;9913;51.168;4.124;2023-04-03T04:41:21;1.29;63.14
19536;HTU21D;9913;51.168;4.124;2023-04-03T04:43:51;1.26;62.87
19536;HTU21D;9913;51.168;4.124;2023-04-03T04:46:20;1.22;63.11
19536;HTU21D;9913;51.168;4.124;2023-04-03T04:48:53;1.16;63.18
19536;HTU21D;9913;51.168;4.124;2023-04-03T04:51:28;1.14;63.37
19536;HTU21D;9913;51.168;4.124;2023-04-03T04:54:09;1.25;63.35
19536;HTU21D;9913;51.168;4.124;2023-04-03T04:56:38;1.14;63.31
19536;HTU21D;9913;51.168;4.124;2023-04-03T04:59:08;1.08;63.34
19536;HTU21D;9913;51.168;4.124;2023-04-03T05:01:36;1.03;63.58
19536;HTU21D;9913;51.168;4.124;2023-04-03T05:04:09;0.97;63.63
19536;HTU21D;9913;51.168;4.124;2023-04-03T05:06:41;0.91;63.70
19536;HTU21D;9913;51.168;4.124;2023-04-03T05:09:14;0.93;63.80
19536;HTU21D;9913;51.168;4.124;2023-04-03T05:11:44;0.95;64.04
19536;HTU21D;9913;51.168;4.124;2023-04-03T05:14:15;0.90;63.98
19536;HTU21D;9913;51.168;4.124;2023-04-03T05:16:44;0.92;63.83
19536;HTU21D;9913;51.168;4.124;2023-04-03T05:19:12;0.99;63.79
19536;HTU21D;9913;51.168;4.124;2023-04-03T05:21:43;0.95;63.60
19536;HTU21D;9913;51.168;4.124;2023-04-03T05:24:15;0.92;63.66
19536;HTU21D;9913;51.168;4.124;2023-04-03T05:26:43;1.03;63.66
19536;HTU21D;9913;51.168;4.124;2023-04-03T05:29:14;1.09;63.60
19536;HTU21D;9913;51.168;4.124;2023-04-03T05:31:42;1.08;63.37
19536;HTU21D;9913;51.168;4.124;2023-04-03T05:34:12;1.26;63.19
19536;HTU21D;9913;51.168;4.124;2023-04-03T05:36:43;1.34;62.90
19536;HTU21D;9913;51.168;4.124;2023-04-03T05:39:14;1.41;62.62
19536;HTU21D;9913;51.168;4.124;2023-04-03T05:41:44;1.43;62.71
19536;HTU21D;9913;51.168;4.124;2023-04-03T05:44:12;1.50;62.53
19536;HTU21D;9913;51.168;4.124;2023-04-03T05:46:43;1.53;62.51
19536;HTU21D;9913;51.168;4.124;2023-04-03T05:49:12;1.72;62.44
19536;HTU21D;9913;51.168;4.124;2023-04-03T05:51:40;1.81;62.13
19536;HTU21D;9913;51.168;4.124;2023-04-03T05:54:26;1.87;62.16
19536;HTU21D;9913;51.168;4.124;2023-04-03T05:57:07;1.97;61.83
19536;HTU21D;9913;51.168;4.124;2023-04-03T05:59:36;1.95;61.89
19536;HTU21D;9913;51.168;4.124;2023-04-03T06:02:04;1.93;61.87
19536;HTU21D;9913;51.168;4.124;2023-04-03T06:04:33;1.99;61.94
19536;HTU21D;9913;51.168;4.124;2023-04-03T06:07:01;2.05;61.76
19536;HTU21D;9913;51.168;4.124;2023-04-03T06:09:31;1.98;61.85
19536;HTU21D;9913;51.168;4.124;2023-04-03T06:11:59;2.12;61.76
19536;HTU21D;9913;51.168;4.124;2023-04-03T06:14:29;2.19;61.54
19536;HTU21D;9913;51.168;4.124;2023-04-03T06:16:58;2.32;61.54
19536;HTU21D;9913;51.168;4.124;2023-04-03T06:19:26;2.43;61.51
19536;HTU21D;9913;51.168;4.124;2023-04-03T06:21:57;2.44;61.57
19536;HTU21D;9913;51.168;4.124;2023-04-03T06:24:26;2.46;61.57
19536;HTU21D;9913;51.168;4.124;2023-04-03T06:26:56;2.58;61.44
19536;HTU21D;9913;51.168;4.124;2023-04-03T06:29:24;2.71;61.38
19536;HTU21D;9913;51.168;4.124;2023-04-03T06:31:53;2.76;61.28
19536;HTU21D;9913;51.168;4.124;2023-04-03T06:34:21;2.86;61.32
19536;HTU21D;9913;51.168;4.124;2023-04-03T06:36:49;2.87;61.41
19536;HTU21D;9913;51.168;4.124;2023-04-03T06:39:20;2.96;61.31
19536;HTU21D;9913;51.168;4.124;2023-04-03T06:41:49;3.01;61.57
19536;HTU21D;9913;51.168;4.124;2023-04-03T06:44:27;3.08;61.78
19536;HTU21D;9913;51.168;4.124;2023-04-03T06:46:55;3.20;61.76
19536;HTU21D;9913;51.168;4.124;2023-04-03T06:49:23;3.27;61.35
19536;HTU21D;9913;51.168;4.124;2023-04-03T06:51:52;3.30;61.65
19536;HTU21D;9913;51.168;4.124;2023-04-03T06:54:20;3.33;61.62
19536;HTU21D;9913;51.168;4.124;2023-04-03T06:56:48;3.50;61.56
19536;HTU21D;9913;51.168;4.124;2023-04-03T06:59:18;3.50;61.98
19536;HTU21D;9913;51.168;4.124;2023-04-03T07:01:48;3.59;62.18
19536;HTU21D;9913;51.168;4.124;2023-04-03T07:04:16;3.59;62.79
19536;HTU21D;9913;51.168;4.124;2023-04-03T07:06:46;3.74;62.05
19536;HTU21D;9913;51.168;4.124;2023-04-03T07:09:15;3.84;61.99
19536;HTU21D;9913;51.168;4.124;2023-04-03T07:11:43;3.94;62.21
19536;HTU21D;9913;51.168;4.124;2023-04-03T07:14:11;4.06;63.02
19536;HTU21D;9913;51.168;4.124;2023-04-03T07:16:40;4.12;62.23
19536;HTU21D;9913;51.168;4.124;2023-04-03T07:19:10;4.19;63.58
19536;HTU21D;9913;51.168;4.124;2023-04-03T07:21:38;4.18;63.40
19536;HTU21D;9913;51.168;4.124;2023-04-03T07:24:08;4.30;63.48
19536;HTU21D;9913;51.168;4.124;2023-04-03T07:26:41;4.23;64.20
19536;HTU21D;9913;51.168;4.124;2023-04-03T07:29:12;4.42;64.23
19536;HTU21D;9913;51.168;4.124;2023-04-03T07:31:41;4.34;63.32
19536;HTU21D;9913;51.168;4.124;2023-04-03T07:34:13;4.45;64.10
19536;HTU21D;9913;51.168;4.124;2023-04-03T07:36:41;4.63;65.48
19536;HTU21D;9913;51.168;4.124;2023-04-03T07:39:09;4.76;64.85
19536;HTU21D;9913;51.168;4.124;2023-04-03T07:41:38;4.76;65.65
19536;HTU21D;9913;51.168;4.124;2023-04-03T07:44:06;4.86;65.21
19536;HTU21D;9913;51.168;4.124;2023-04-03T07:46:36;5.00;65.25
19536;HTU21D;9913;51.168;4.124;2023-04-03T07:49:07;5.04;65.64
19536;HTU21D;9913;51.168;4.124;2023-04-03T07:51:37;5.16;65.69
19536;HTU21D;9913;51.168;4.124;2023-04-03T07:54:05;5.28;67.49
19536;HTU21D;9913;51.168;4.124;2023-04-03T07:56:33;5.43;66.11
19536;HTU21D;9913;51.168;4.124;2023-04-03T07:59:02;5.53;67.11
19536;HTU21D;9913;51.168;4.124;2023-04-03T08:01:30;5.53;67.39
19536;HTU21D;9913;51.168;4.124;2023-04-03T08:04:01;5.53;66.95
19536;HTU21D;9913;51.168;4.124;2023-04-03T08:06:31;5.76;66.93
19536;HTU21D;9913;51.168;4.124;2023-04-03T08:09:13;5.72;66.59
19536;HTU21D;9913;51.168;4.124;2023-04-03T08:11:43;5.82;67.93
19536;HTU21D;9913;51.168;4.124;2023-04-03T08:14:11;5.91;66.34
19536;HTU21D;9913;51.168;4.124;2023-04-03T08:16:44;6.05;67.56
19536;HTU21D;9913;51.168;4.124;2023-04-03T08:19:14;6.08;66.59
19536;HTU21D;9913;51.168;4.124;2023-04-03T08:21:53;6.05;65.67
19536;HTU21D;9913;51.168;4.124;2023-04-03T08:24:23;6.04;65.84
19536;HTU21D;9913;51.168;4.124;2023-04-03T08:26:52;6.34;67.97
19536;HTU21D;9913;51.168;4.124;2023-04-03T08:29:20;6.53;66.94
19536;HTU21D;9913;51.168;4.124;2023-04-03T08:31:49;6.56;67.48
19536;HTU21D;9913;51.168;4.124;2023-04-03T08:34:18;6.54;69.60
19536;HTU21D;9913;51.168;4.124;2023-04-03T08:36:47;6.61;68.96
19536;HTU21D;9913;51.168;4.124;2023-04-03T08:39:15;6.66;67.90
19536;HTU21D;9913;51.168;4.124;2023-04-03T08:41:46;6.80;67.65
19536;HTU21D;9913;51.168;4.124;2023-04-03T08:44:20;6.88;68.52
19536;HTU21D;9913;51.168;4.124;2023-04-03T08:46:58;7.15;68.68
19536;HTU21D;9913;51.168;4.124;2023-04-03T08:49:30;7.02;69.04
19536;HTU21D;9913;51.168;4.124;2023-04-03T08:52:02;7.01;67.68
19536;HTU21D;9913;51.168;4.124;2023-04-03T08:54:34;7.00;69.61
19536;HTU21D;9913;51.168;4.124;2023-04-03T08:57:05;6.99;68.27
19536;HTU21D;9913;51.168;4.124;2023-04-03T08:59:35;7.01;66.78
19536;HTU21D;9913;51.168;4.124;2023-04-03T09:02:20;6.96;67.51
19536;HTU21D;9913;51.168;4.124;2023-04-03T09:04:50;7.14;69.85
19536;HTU21D;9913;51.168;4.124;2023-04-03T09:07:23;7.20;69.16
19536;HTU21D;9913;51.168;4.124;2023-04-03T09:09:54;7.37;69.18
19536;HTU21D;9913;51.168;4.124;2023-04-03T09:12:29;7.39;70.00
19536;HTU21D;9913;51.168;4.124;2023-04-03T09:15:10;7.58;68.46
19536;HTU21D;9913;51.168;4.124;2023-04-03T09:17:53;7.44;69.52
19536;HTU21D;9913;51.168;4.124;2023-04-03T09:20:31;7.53;68.75
19536;HTU21D;9913;51.168;4.124;2023-04-03T09:23:09;7.73;69.55
19536;HTU21D;9913;51.168;4.124;2023-04-03T09:25:42;7.79;68.17
19536;HTU21D;9913;51.168;4.124;2023-04-03T09:28:12;7.81;68.86
19536;HTU21D;9913;51.168;4.124;2023-04-03T09:30:41;7.83;69.10
19536;HTU21D;9913;51.168;4.124;2023-04-03T09:33:11;8.09;71.35
19536;HTU21D;9913;51.168;4.124;2023-04-03T09:35:40;7.99;71.04
19536;HTU21D;9913;51.168;4.124;2023-04-03T09:38:18;8.18;72.40
19536;HTU21D;9913;51.168;4.124;2023-04-03T09:40:48;8.26;70.69
19536;HTU21D;9913;51.168;4.124;2023-04-03T09:43:28;8.21;69.74
19536;HTU21D;9913;51.168;4.124;2023-04-03T09:46:16;8.34;70.15
19536;HTU21D;9913;51.168;4.124;2023-04-03T09:48:51;8.59;70.77
19536;HTU21D;9913;51.168;4.124;2023-04-03T09:51:34;8.51;71.66
19536;HTU21D;9913;51.168;4.124;2023-04-03T09:54:34;8.80;73.44
19536;HTU21D;9913;51.168;4.124;2023-04-03T09:57:08;8.60;71.61
19536;HTU21D;9913;51.168;4.124;2023-04-03T09:59:44;8.82;70.09
19536;HTU21D;9913;51.168;4.124;2023-04-03T10:02:24;8.79;72.86
19536;HTU21D;9913;51.168;4.124;2023-04-03T10:04:57;8.71;69.27
19536;HTU21D;9913;51.168;4.124;2023-04-03T10:07:34;8.83;72.01
19536;HTU21D;9913;51.168;4.124;2023-04-03T10:10:17;8.91;97.53
19536;HTU21D;9913;51.168;4.124;2023-04-03T10:12:47;9.02;104.45
19536;HTU21D;9913;51.168;4.124;2023-04-03T10:15:18;9.05;101.54
19536;HTU21D;9913;51.168;4.124;2023-04-03T10:17:52;9.18;102.81
19536;HTU21D;9913;51.168;4.124;2023-04-03T10:20:29;9.19;99.96
19536;HTU21D;9913;51.168;4.124;2023-04-03T10:23:06;9.62;106.44
19536;HTU21D;9913;51.168;4.124;2023-04-03T10:25:51;9.83;105.39
19536;HTU21D;9913;51.168;4.124;2023-04-03T10:28:29;10.03;104.55
19536;HTU21D;9913;51.168;4.124;2023-04-03T10:31:03;9.99;103.58
19536;HTU21D;9913;51.168;4.124;2023-04-03T10:33:47;10.25;103.51
19536;HTU21D;9913;51.168;4.124;2023-04-03T10:36:28;10.29;104.17
19536;HTU21D;9913;51.168;4.124;2023-04-03T10:39:02;9.93;105.25
19536;HTU21D;9913;51.168;4.124;2023-04-03T10:41:40;9.84;100.00
19536;HTU21D;9913;51.168;4.124;2023-04-03T10:44:16;9.94;109.63
19536;HTU21D;9913;51.168;4.124;2023-04-03T10:46:53;10.08;105.95
19536;HTU21D;9913;51.168;4.124;2023-04-03T10:49:33;9.91;105.37
19536;HTU21D;9913;51.168;4.124;2023-04-03T10:52:13;10.56;103.75
19536;HTU21D;9913;51.168;4.124;2023-04-03T10:54:48;10.16;103.01
19536;HTU21D;9913;51.168;4.124;2023-04-03T10:57:18;10.52;103.89
19536;HTU21D;9913;51.168;4.124;2023-04-03T10:59:50;10.60;105.61
19536;HTU21D;9913;51.168;4.124;2023-04-03T11:02:23;10.67;105.34
19536;HTU21D;9913;51.168;4.124;2023-04-03T11:05:00;10.31;98.15
19536;HTU21D;9913;51.168;4.124;2023-04-03T11:07:33;10.48;100.93
19536;HTU21D;9913;51.168;4.124;2023-04-03T11:10:09;10.68;98.07
19536;HTU21D;9913;51.168;4.124;2023-04-03T11:12:46;10.74;98.93
19536;HTU21D;9913;51.168;4.124;2023-04-03T11:15:17;10.78;101.64
19536;HTU21D;9913;51.168;4.124;2023-04-03T11:17:52;10.71;102.73
19536;HTU21D;9913;51.168;4.124;2023-04-03T11:20:26;10.99;96.50
19536;HTU21D;9913;51.168;4.124;2023-04-03T11:23:00;10.88;96.33
19536;HTU21D;9913;51.168;4.124;2023-04-03T11:25:32;10.77;94.17
19536;HTU21D;9913;51.168;4.124;2023-04-03T11:28:04;11.07;94.23
19536;HTU21D;9913;51.168;4.124;2023-04-03T11:30:38;11.13;93.55
19536;HTU21D;9913;51.168;4.124;2023-04-03T11:33:39;11.23;93.37
19536;HTU21D;9913;51.168;4.124;2023-04-03T11:36:18;11.20;91.31
19536;HTU21D;9913;51.168;4.124;2023-04-03T11:38:57;11.25;90.92
19536;HTU21D;9913;51.168;4.124;2023-04-03T11:41:29;11.38;91.69
19536;HTU21D;9913;51.168;4.124;2023-04-03T11:44:00;11.36;91.93
19536;HTU21D;9913;51.168;4.124;2023-04-03T11:46:54;11.61;91.11
19536;HTU21D;9913;51.168;4.124;2023-04-03T11:49:54;11.48;89.66
19536;HTU21D;9913;51.168;4.124;2023-04-03T11:52:55;11.48;86.97
19536;HTU21D;9913;51.168;4.124;2023-04-03T11:55:43;11.75;89.11
19536;HTU21D;9913;51.168;4.124;2023-04-03T11:58:14;11.30;88.46
19536;HTU21D;9913;51.168;4.124;2023-04-03T12:01:03;11.23;83.04
19536;HTU21D;9913;51.168;4.124;2023-04-03T12:07:11;11.55;85.15
19536;HTU21D;9913;51.168;4.124;2023-04-03T12:10:01;11.46;85.90
19536;HTU21D;9913;51.168;4.124;2023-04-03T12:12:35;11.62;85.94
19536;HTU21D;9913;51.168;4.124;2023-04-03T12:15:24;11.71;86.54
19536;HTU21D;9913;51.168;4.124;2023-04-03T12:17:53;11.67;84.21
19536;HTU21D;9913;51.168;4.124;2023-04-03T12:20:53;12.03;87.29
19536;HTU21D;9913;51.168;4.124;2023-04-03T12:23:26;12.20;83.81
19536;HTU21D;9913;51.168;4.124;2023-04-03T12:26:02;11.90;81.76
19536;HTU21D;9913;51.168;4.124;2023-04-03T12:28:39;12.06;79.46
19536;HTU21D;9913;51.168;4.124;2023-04-03T12:31:10;11.81;80.57
19536;HTU21D;9913;51.168;4.124;2023-04-03T12:33:52;12.33;80.65
19536;HTU21D;9913;51.168;4.124;2023-04-03T12:36:33;12.28;78.52
19536;HTU21D;9913;51.168;4.124;2023-04-03T12:39:25;11.83;78.82
19536;HTU21D;9913;51.168;4.124;2023-04-03T12:41:58;12.38;79.83
19536;HTU21D;9913;51.168;4.124;2023-04-03T12:44:40;11.88;75.45
19536;HTU21D;9913;51.168;4.124;2023-04-03T12:47:23;12.19;77.54
19536;HTU21D;9913;51.168;4.124;2023-04-03T12:49:53;12.30;78.89
19536;HTU21D;9913;51.168;4.124;2023-04-03T12:52:31;12.61;77.72
19536;HTU21D;9913;51.168;4.124;2023-04-03T12:55:03;12.12;77.46
19536;HTU21D;9913;51.168;4.124;2023-04-03T12:57:37;12.00;76.60
19536;HTU21D;9913;51.168;4.124;2023-04-03T13:00:27;12.10;76.86
19536;HTU21D;9913;51.168;4.124;2023-04-03T13:02:56;11.91;76.15
19536;HTU21D;9913;51.168;4.124;2023-04-03T13:05:24;12.14;76.56
19536;HTU21D;9913;51.168;4.124;2023-04-03T13:07:58;12.51;75.51
19536;HTU21D;9913;51.168;4.124;2023-04-03T13:10:28;12.29;75.83
19536;HTU21D;9913;51.168;4.124;2023-04-03T13:13:07;12.30;74.22
19536;HTU21D;9913;51.168;4.124;2023-04-03T13:15:42;12.25;75.19
19536;HTU21D;9913;51.168;4.124;2023-04-03T13:18:23;12.62;74.37
19536;HTU21D;9913;51.168;4.124;2023-04-03T13:20:52;12.34;73.25
19536;HTU21D;9913;51.168;4.124;2023-04-03T13:23:21;12.27;73.39
19536;HTU21D;9913;51.168;4.124;2023-04-03T13:25:51;12.27;72.63
19536;HTU21D;9913;51.168;4.124;2023-04-03T13:28:21;12.90;76.31
19536;HTU21D;9913;51.168;4.124;2023-04-03T13:31:01;12.73;73.41
19536;HTU21D;9913;51.168;4.124;2023-04-03T13:33:32;12.64;71.14
19536;HTU21D;9913;51.168;4.124;2023-04-03T13:36:06;12.37;70.15
19536;HTU21D;9913;51.168;4.124;2023-04-03T13:38:38;12.22;71.00
19536;HTU21D;9913;51.168;4.124;2023-04-03T13:41:24;12.26;71.06
19536;HTU21D;9913;51.168;4.124;2023-04-03T13:43:54;12.40;71.15
19536;HTU21D;9913;51.168;4.124;2023-04-03T13:46:36;12.01;72.11
19536;HTU21D;9913;51.168;4.124;2023-04-03T13:49:18;12.34;70.70
19536;HTU21D;9913;51.168;4.124;2023-04-03T13:51:48;12.53;70.00
19536;HTU21D;9913;51.168;4.124;2023-04-03T13:54:35;12.20;71.68
19536;HTU21D;9913;51.168;4.124;2023-04-03T13:57:13;12.38;72.45
19536;HTU21D;9913;51.168;4.124;2023-04-03T13:59:43;12.19;69.26
19536;HTU21D;9913;51.168;4.124;2023-04-03T14:02:20;12.25;69.29
19536;HTU21D;9913;51.168;4.124;2023-04-03T14:04:52;12.03;71.40
19536;HTU21D;9913;51.168;4.124;2023-04-03T14:07:23;12.90;70.61
19536;HTU21D;9913;51.168;4.124;2023-04-03T14:09:52;12.42;69.09
19536;HTU21D;9913;51.168;4.124;2023-04-03T14:12:26;12.03;69.45
19536;HTU21D;9913;51.168;4.124;2023-04-03T14:14:59;12.57;74.12
19536;HTU21D;9913;51.168;4.124;2023-04-03T14:17:28;12.52;71.20
19536;HTU21D;9913;51.168;4.124;2023-04-03T14:19:58;12.58;69.91
19536;HTU21D;9913;51.168;4.124;2023-04-03T14:22:30;12.58;70.07
19536;HTU21D;9913;51.168;4.124;2023-04-03T14:24:59;12.93;71.25
19536;HTU21D;9913;51.168;4.124;2023-04-03T14:27:34;12.92;71.27
19536;HTU21D;9913;51.168;4.124;2023-04-03T14:30:03;12.90;70.47
19536;HTU21D;9913;51.168;4.124;2023-04-03T14:32:32;12.35;68.87
19536;HTU21D;9913;51.168;4.124;2023-04-03T14:35:02;12.76;69.19
19536;HTU21D;9913;51.168;4.124;2023-04-03T14:37:30;13.15;70.61
19536;HTU21D;9913;51.168;4.124;2023-04-03T14:40:00;13.41;69.16
19536;HTU21D;9913;51.168;4.124;2023-04-03T14:42:34;13.64;67.94
19536;HTU21D;9913;51.168;4.124;2023-04-03T14:45:04;12.95;68.81
19536;HTU21D;9913;51.168;4.124;2023-04-03T14:47:33;13.29;68.33
19536;HTU21D;9913;51.168;4.124;2023-04-03T14:50:04;13.67;68.87
19536;HTU21D;9913;51.168;4.124;2023-04-03T14:52:35;13.63;67.36
19536;HTU21D;9913;51.168;4.124;2023-04-03T14:55:04;13.98;66.69
19536;HTU21D;9913;51.168;4.124;2023-04-03T14:57:38;13.99;67.50
19536;HTU21D;9913;51.168;4.124;2023-04-03T15:00:12;13.79;66.66
19536;HTU21D;9913;51.168;4.124;2023-04-03T15:02:41;13.92;68.86
19536;HTU21D;9913;51.168;4.124;2023-04-03T15:05:10;14.34;65.88
19536;HTU21D;9913;51.168;4.124;2023-04-03T15:07:41;13.44;65.89
19536;HTU21D;9913;51.168;4.124;2023-04-03T15:10:16;14.19;67.78
19536;HTU21D;9913;51.168;4.124;2023-04-03T15:12:48;14.40;65.28
19536;HTU21D;9913;51.168;4.124;2023-04-03T15:15:18;14.88;64.24
19536;HTU21D;9913;51.168;4.124;2023-04-03T15:17:49;14.96;63.60
19536;HTU21D;9913;51.168;4.124;2023-04-03T15:20:23;14.86;62.55
19536;HTU21D;9913;51.168;4.124;2023-04-03T15:22:52;14.33;64.67
19536;HTU21D;9913;51.168;4.124;2023-04-03T15:25:23;13.79;63.35
19536;HTU21D;9913;51.168;4.124;2023-04-03T15:27:54;14.04;63.41
19536;HTU21D;9913;51.168;4.124;2023-04-03T15:30:25;14.93;63.78
19536;HTU21D;9913;51.168;4.124;2023-04-03T15:32:53;15.19;63.21
19536;HTU21D;9913;51.168;4.124;2023-04-03T15:35:21;14.75;61.38
19536;HTU21D;9913;51.168;4.124;2023-04-03T15:37:50;14.19;62.31
19536;HTU21D;9913;51.168;4.124;2023-04-03T15:40:18;14.32;61.89
19536;HTU21D;9913;51.168;4.124;2023-04-03T15:42:47;14.36;62.55
19536;HTU21D;9913;51.168;4.124;2023-04-03T15:45:19;14.11;62.37
19536;HTU21D;9913;51.168;4.124;2023-04-03T15:47:48;13.15;62.59
19536;HTU21D;9913;51.168;4.124;2023-04-03T15:50:17;12.23;65.23
19536;HTU21D;9913;51.168;4.124;2023-04-03T15:52:45;11.71;67.29
19536;HTU21D;9913;51.168;4.124;2023-04-03T15:55:14;11.01;67.43
19536;HTU21D;9913;51.168;4.124;2023-04-03T15:57:42;10.90;69.10
19536;HTU21D;9913;51.168;4.124;2023-04-03T16:00:12;10.86;71.59
19536;HTU21D;9913;51.168;4.124;2023-04-03T16:02:42;10.65;71.26
19536;HTU21D;9913;51.168;4.124;2023-04-03T16:05:11;10.54;70.16
19536;HTU21D;9913;51.168;4.124;2023-04-03T16:07:40;10.54;69.99
19536;HTU21D;9913;51.168;4.124;2023-04-03T16:10:10;10.35;71.30
19536;HTU21D;9913;51.168;4.124;2023-04-03T16:12:38;10.49;70.68
19536;HTU21D;9913;51.168;4.124;2023-04-03T16:15:07;10.52;70.66